Time;durP1;ratioP1;P1;durP2;ratioP2;P2;SDS_P1;SDS_P2;PMS_P1;PMS_P2;Temp;Humidity;BMP_temperature;BMP_pressure;BME280_temperature;BME280_humidity;BME280_pressure;Samples;Min_cycle;Max_cycle;Signal;HPM_P1;HPM_P2
2023/11/24 00:01:06;;;;;;;;;;;;;;;6.65;100.00;99321.69;5048908;28;19931;-56
2023/11/24 00:03:34;;;;;;;;;;;;;;;6.63;100.00;99341.88;5052302;28;19929;-58
2023/11/24 00:06:01;;;;;;;;;;;;;;;6.56;100.00;99338.78;5048324;28;19960;-54
2023/11/24 00:08:28;;;;;;;;;;;;;;;6.53;100.00;99325.94;5048077;28;19924;-55
2023/11/24 00:10:55;;;;;;;;;;;;;;;6.46;100.00;99320.22;5057040;28;20256;-54
2023/11/24 00:13:22;;;;;;;;;;;;;;;6.45;100.00;99325.56;5060981;28;19924;-53
2023/11/24 00:15:51;;;;;;;;;;;;;;;6.41;100.00;99335.38;5052788;28;19963;-56
2023/11/24 00:18:21;;;;;;;;;;;;;;;6.38;100.00;99334.72;5059929;28;19972;-57
2023/11/24 00:20:48;;;;;;;;;;;;;;;6.38;100.00;99338.16;5056143;28;19964;-52
2023/11/24 00:23:15;;;;;;;;;;;;;;;6.36;99.91;99345.28;5054369;28;19940;-52
2023/11/24 00:25:43;;;;;;;;;;;;;;;6.31;100.00;99332.50;5060366;28;20011;-55
2023/11/24 00:28:09;;;;;;;;;;;;;;;6.31;100.00;99349.94;5053633;28;19968;-51
2023/11/24 00:30:36;;;;;;;;;;;;;;;6.31;100.00;99365.63;5054727;28;20106;-56
2023/11/24 00:33:04;;;;;;;;;;;;;;;6.27;100.00;99335.38;5053279;28;20016;-55
2023/11/24 00:35:32;;;;;;;;;;;;;;;6.32;99.61;99349.00;5055214;28;19983;-56
2023/11/24 00:37:59;;;;;;;;;;;;;;;6.29;100.00;99344.78;5049985;28;19925;-54
2023/11/24 00:40:26;;;;;;;;;;;;;;;6.21;99.39;99354.03;5051704;28;19994;-57
2023/11/24 00:42:55;;;;;;;;;;;;;;;6.14;100.00;99335.28;5054570;28;19932;-55
2023/11/24 00:45:22;;;;;;;;;;;;;;;6.18;99.75;99322.88;5047686;28;19950;-54
2023/11/24 00:47:49;;;;;;;;;;;;;;;6.17;99.19;99336.88;5050525;28;20015;-55
2023/11/24 00:50:16;;;;;;;;;;;;;;;6.13;98.99;99351.91;5052569;28;19932;-53
2023/11/24 00:52:43;;;;;;;;;;;;;;;6.19;96.93;99361.16;5048082;28;19972;-54
2023/11/24 00:55:10;;;;;;;;;;;;;;;6.18;97.56;99346.41;5047444;28;20017;-54
2023/11/24 00:57:37;;;;;;;;;;;;;;;6.04;99.27;99339.41;5049507;28;20019;-54
2023/11/24 01:00:07;;;;;;;;;;;;;;;6.05;99.53;99356.75;5041495;28;19928;-50
2023/11/24 01:02:36;;;;;;;;;;;;;;;6.06;97.54;99353.22;5042912;28;20024;-54
2023/11/24 01:05:04;;;;;;;;;;;;;;;6.03;97.19;99343.81;5048158;28;19929;-58
2023/11/24 01:07:31;;;;;;;;;;;;;;;6.02;97.62;99331.66;5049599;28;19932;-54
2023/11/24 01:09:58;;;;;;;;;;;;;;;5.96;98.78;99344.25;5046488;28;19933;-51
2023/11/24 01:12:25;;;;;;;;;;;;;;;5.92;98.91;99342.75;5047204;28;20403;-52
2023/11/24 01:14:52;;;;;;;;;;;;;;;5.91;98.69;99360.16;5043284;28;19960;-55
2023/11/24 01:17:20;;;;;;;;;;;;;;;5.95;97.80;99359.09;5042508;28;19986;-52
2023/11/24 01:19:48;;;;;;;;;;;;;;;5.95;98.44;99348.66;5050441;28;19967;-54
2023/11/24 01:22:15;;;;;;;;;;;;;;;5.94;98.71;99338.25;5045640;28;20005;-50
2023/11/24 01:24:44;;;;;;;;;;;;;;;5.90;100.00;99349.78;5036600;28;19974;-53
2023/11/24 01:27:11;;;;;;;;;;;;;;;5.92;99.58;99348.81;5041592;28;19929;-54
2023/11/24 01:29:39;;;;;;;;;;;;;;;5.96;98.50;99341.63;5044474;28;19948;-57
2023/11/24 01:32:06;;;;;;;;;;;;;;;5.94;99.17;99339.09;5047500;28;19925;-55
2023/11/24 01:34:33;;;;;;;;;;;;;;;5.91;99.78;99348.88;5045753;28;19925;-52
2023/11/24 01:37:00;;;;;;;;;;;;;;;5.91;99.72;99354.94;5049482;28;19983;-55
2023/11/24 01:39:27;;;;;;;;;;;;;;;5.84;99.14;99357.06;5050781;28;20406;-55
2023/11/24 01:41:54;;;;;;;;;;;;;;;5.72;100.00;99346.50;5042748;28;20027;-54
2023/11/24 01:44:22;;;;;;;;;;;;;;;5.66;100.00;99352.09;5042528;28;20008;-52
2023/11/24 01:46:49;;;;;;;;;;;;;;;5.54;100.00;99383.22;5047614;28;20005;-54
2023/11/24 01:49:16;;;;;;;;;;;;;;;5.32;100.00;99374.97;5049179;28;20003;-55
2023/11/24 01:51:43;;;;;;;;;;;;;;;5.21;100.00;99387.75;5043438;28;19998;-55
2023/11/24 01:54:11;;;;;;;;;;;;;;;5.06;100.00;99392.09;5041190;28;19926;-55
2023/11/24 01:56:37;;;;;;;;;;;;;;;4.92;100.00;99416.31;5044490;28;19956;-57
2023/11/24 01:59:05;;;;;;;;;;;;;;;4.78;100.00;99391.00;5050821;28;19964;-54
2023/11/24 02:01:32;;;;;;;;;;;;;;;4.70;100.00;99394.94;5045922;28;19925;-56
2023/11/24 02:03:59;;;;;;;;;;;;;;;4.60;100.00;99391.16;5031750;28;20011;-54
2023/11/24 02:06:27;;;;;;;;;;;;;;;4.45;100.00;99388.44;5040922;28;20115;-54
2023/11/24 02:09:03;;;;;;;;;;;;;;;4.24;100.00;99369.59;5044905;28;19936;-56
2023/11/24 02:11:30;;;;;;;;;;;;;;;4.18;100.00;99382.09;5046551;28;20472;-55
2023/11/24 02:13:57;;;;;;;;;;;;;;;4.15;100.00;99377.91;5047420;28;20134;-49
2023/11/24 02:16:24;;;;;;;;;;;;;;;4.01;100.00;99378.63;5047023;28;19963;-53
2023/11/24 02:18:51;;;;;;;;;;;;;;;3.93;100.00;99359.09;5043770;28;20016;-52
2023/11/24 02:21:18;;;;;;;;;;;;;;;3.93;100.00;99359.94;5042984;28;20130;-50
2023/11/24 02:23:45;;;;;;;;;;;;;;;3.87;100.00;99360.25;5047500;28;20099;-52
2023/11/24 02:26:12;;;;;;;;;;;;;;;3.73;100.00;99360.94;5050302;28;20520;-51
2023/11/24 02:28:39;;;;;;;;;;;;;;;3.76;100.00;99359.97;5046868;28;19968;-53
2023/11/24 02:31:07;;;;;;;;;;;;;;;3.65;100.00;99350.13;5053468;28;19989;-56
2023/11/24 02:33:34;;;;;;;;;;;;;;;3.62;100.00;99347.66;5046435;28;19956;-54
2023/11/24 02:36:08;;;;;;;;;;;;;;;3.53;100.00;99340.31;5050097;28;19990;-56
2023/11/24 02:38:36;;;;;;;;;;;;;;;3.48;100.00;99345.75;5044779;28;20025;-50
2023/11/24 02:41:05;;;;;;;;;;;;;;;3.45;100.00;99340.69;5040383;28;20023;-55
2023/11/24 02:43:32;;;;;;;;;;;;;;;3.46;100.00;99342.38;5051204;28;20011;-53
2023/11/24 02:46:00;;;;;;;;;;;;;;;3.50;100.00;99338.69;5044813;28;19925;-56
2023/11/24 02:48:27;;;;;;;;;;;;;;;3.46;100.00;99334.56;5051794;28;19929;-52
2023/11/24 02:50:54;;;;;;;;;;;;;;;3.48;100.00;99324.09;5051591;28;19980;-52
2023/11/24 02:53:21;;;;;;;;;;;;;;;3.49;100.00;99331.81;5041188;28;20635;-51
2023/11/24 02:55:48;;;;;;;;;;;;;;;3.46;100.00;99323.31;5055312;28;19933;-52
2023/11/24 02:58:15;;;;;;;;;;;;;;;3.49;100.00;99318.81;5048973;28;20214;-53
2023/11/24 03:00:42;;;;;;;;;;;;;;;3.47;100.00;99318.06;5054468;28;20043;-54
2023/11/24 03:03:09;;;;;;;;;;;;;;;3.48;100.00;99324.94;5045418;28;20342;-48
2023/11/24 03:05:36;;;;;;;;;;;;;;;3.49;100.00;99317.97;5042856;28;20027;-53
2023/11/24 03:08:03;;;;;;;;;;;;;;;3.48;100.00;99324.94;5041661;28;19929;-51
2023/11/24 03:10:30;;;;;;;;;;;;;;;3.52;100.00;99325.63;5047178;28;19996;-52
2023/11/24 03:12:57;;;;;;;;;;;;;;;3.52;100.00;99321.25;5051848;28;20010;-49
2023/11/24 03:15:25;;;;;;;;;;;;;;;3.53;100.00;99322.94;5039801;28;19933;-50
2023/11/24 03:17:52;;;;;;;;;;;;;;;3.51;100.00;99332.59;5042735;28;19932;-49
2023/11/24 03:20:19;;;;;;;;;;;;;;;3.50;100.00;99324.84;5048371;28;20016;-51
2023/11/24 03:22:48;;;;;;;;;;;;;;;3.51;100.00;99316.13;5048080;28;20022;-49
2023/11/24 03:25:15;;;;;;;;;;;;;;;3.50;100.00;99324.84;5047941;28;20485;-54
2023/11/24 03:27:41;;;;;;;;;;;;;;;3.49;100.00;99323.19;5048295;28;20368;-53
2023/11/24 03:30:09;;;;;;;;;;;;;;;3.56;100.00;99332.38;5052839;28;20289;-55
2023/11/24 03:32:36;;;;;;;;;;;;;;;3.57;100.00;99330.59;5048249;28;19932;-50
2023/11/24 03:35:03;;;;;;;;;;;;;;;3.59;100.00;99336.56;5052784;28;19924;-49
2023/11/24 03:37:31;;;;;;;;;;;;;;;3.67;100.00;99319.63;5047313;28;19994;-53
2023/11/24 03:39:58;;;;;;;;;;;;;;;3.75;100.00;99321.84;5049376;28;20301;-50
2023/11/24 03:42:25;;;;;;;;;;;;;;;3.81;100.00;99311.94;5052335;28;20422;-53
2023/11/24 03:44:52;;;;;;;;;;;;;;;3.83;100.00;99311.88;5053866;28;20290;-51
2023/11/24 03:47:19;;;;;;;;;;;;;;;3.90;100.00;99302.81;5043308;28;20040;-52
2023/11/24 03:49:46;;;;;;;;;;;;;;;3.98;100.00;99297.22;5040935;28;20265;-55
2023/11/24 03:52:13;;;;;;;;;;;;;;;3.98;100.00;99305.84;5044238;28;19925;-51
2023/11/24 03:54:40;;;;;;;;;;;;;;;4.01;100.00;99305.72;5048317;28;19933;-52
2023/11/24 03:57:07;;;;;;;;;;;;;;;4.02;100.00;99299.56;5046922;28;20113;-56
2023/11/24 03:59:34;;;;;;;;;;;;;;;4.01;100.00;99294.47;5045158;28;19965;-54
2023/11/24 04:02:01;;;;;;;;;;;;;;;4.06;100.00;99293.28;5048084;28;20002;-52
2023/11/24 04:04:28;;;;;;;;;;;;;;;4.10;100.00;99303.50;5046278;28;20070;-51
2023/11/24 04:06:55;;;;;;;;;;;;;;;4.11;100.00;99285.22;5045249;28;19928;-55
2023/11/24 04:09:22;;;;;;;;;;;;;;;4.11;100.00;99282.63;5044295;28;19967;-50
2023/11/24 04:11:49;;;;;;;;;;;;;;;4.16;100.00;99311.00;5045474;28;20319;-49
2023/11/24 04:14:16;;;;;;;;;;;;;;;4.25;100.00;99303.53;5042806;28;20439;-53
2023/11/24 04:16:43;;;;;;;;;;;;;;;4.25;100.00;99289.69;5042922;28;20430;-51
2023/11/24 04:19:11;;;;;;;;;;;;;;;4.27;100.00;99303.44;5044562;28;19963;-49
2023/11/24 04:21:40;;;;;;;;;;;;;;;4.36;100.00;99305.56;5041357;28;20598;-49
2023/11/24 04:24:07;;;;;;;;;;;;;;;4.36;100.00;99299.50;5045570;28;20001;-56
2023/11/24 04:26:34;;;;;;;;;;;;;;;4.27;100.00;99301.69;5044976;28;20361;-50
2023/11/24 04:29:02;;;;;;;;;;;;;;;4.28;100.00;99302.56;5050270;28;20986;-54
2023/11/24 04:31:30;;;;;;;;;;;;;;;4.26;100.00;99312.19;5052599;28;19936;-55
2023/11/24 04:33:57;;;;;;;;;;;;;;;4.25;100.00;99297.50;5050100;28;19971;-57
2023/11/24 04:36:24;;;;;;;;;;;;;;;4.07;100.00;99297.56;5045435;28;19936;-51
2023/11/24 04:38:51;;;;;;;;;;;;;;;3.74;100.00;99304.56;5044774;28;20015;-52
2023/11/24 04:41:18;;;;;;;;;;;;;;;3.56;100.00;99295.94;5045338;28;19991;-52
2023/11/24 04:43:45;;;;;;;;;;;;;;;3.45;100.00;99298.22;5044050;28;20433;-51
2023/11/24 04:46:13;;;;;;;;;;;;;;;3.41;100.00;99318.34;5046070;28;19983;-51
2023/11/24 04:48:41;;;;;;;;;;;;;;;3.31;100.00;99291.13;5045553;28;19925;-52
2023/11/24 04:51:09;;;;;;;;;;;;;;;3.20;100.00;99289.06;5048494;28;19990;-55
2023/11/24 04:53:35;;;;;;;;;;;;;;;3.03;100.00;99282.09;5048354;28;20004;-50
2023/11/24 04:56:07;;;;;;;;;;;;;;;2.96;100.00;99275.50;5043403;28;20039;-55
2023/11/24 04:58:34;;;;;;;;;;;;;;;2.93;100.00;99277.44;5047972;28;19967;-50
2023/11/24 05:01:01;;;;;;;;;;;;;;;2.93;100.00;99265.28;5039811;28;19978;-51
2023/11/24 05:03:28;;;;;;;;;;;;;;;2.93;100.00;99254.91;5061759;28;20012;-49
2023/11/24 05:05:56;;;;;;;;;;;;;;;3.01;100.00;99257.09;5048077;28;19932;-52
2023/11/24 05:08:23;;;;;;;;;;;;;;;3.07;100.00;99258.56;5049277;28;20017;-52
2023/11/24 05:10:50;;;;;;;;;;;;;;;3.04;100.00;99256.94;5043273;28;20035;-52
2023/11/24 05:13:17;;;;;;;;;;;;;;;3.05;100.00;99259.47;5050855;28;19928;-52
2023/11/24 05:15:46;;;;;;;;;;;;;;;3.07;100.00;99258.56;5048228;28;20058;-52
2023/11/24 05:18:13;;;;;;;;;;;;;;;3.11;100.00;99260.06;5047369;28;19978;-54
2023/11/24 05:20:40;;;;;;;;;;;;;;;3.14;100.00;99255.56;5047193;28;19985;-53
2023/11/24 05:23:07;;;;;;;;;;;;;;;3.17;100.00;99262.38;5040244;28;19980;-57
2023/11/24 05:25:34;;;;;;;;;;;;;;;3.20;100.00;99260.47;5042124;28;19979;-54
2023/11/24 05:28:01;;;;;;;;;;;;;;;3.23;100.00;99270.69;5041367;28;20008;-56
2023/11/24 05:30:28;;;;;;;;;;;;;;;3.20;100.00;99263.06;5040933;28;20276;-49
2023/11/24 05:32:55;;;;;;;;;;;;;;;3.20;100.00;99272.63;5046565;28;19972;-52
2023/11/24 05:35:22;;;;;;;;;;;;;;;3.23;100.00;99265.50;5043717;28;19975;-52
2023/11/24 05:37:49;;;;;;;;;;;;;;;3.19;100.00;99263.13;5045412;28;20000;-52
2023/11/24 05:40:16;;;;;;;;;;;;;;;3.17;100.00;99252.81;5042271;28;19933;-53
2023/11/24 05:42:43;;;;;;;;;;;;;;;3.19;100.00;99250.97;5046621;28;20059;-51
2023/11/24 05:45:12;;;;;;;;;;;;;;;3.16;100.00;99245.09;5043361;28;19968;-53
2023/11/24 05:47:39;;;;;;;;;;;;;;;3.15;100.00;99246.88;5040943;28;19972;-54
2023/11/24 05:50:06;;;;;;;;;;;;;;;3.20;100.00;99242.28;5041786;28;19932;-51
2023/11/24 05:52:33;;;;;;;;;;;;;;;3.16;100.00;99250.31;5045684;28;20299;-53
2023/11/24 05:55:01;;;;;;;;;;;;;;;3.15;100.00;99259.88;5046338;28;20016;-52
2023/11/24 05:57:29;;;;;;;;;;;;;;;3.19;100.00;99250.97;5042414;28;20450;-55
2023/11/24 05:59:56;;;;;;;;;;;;;;;3.20;100.00;99251.84;5043036;28;20039;-51
2023/11/24 06:02:24;;;;;;;;;;;;;;;3.23;100.00;99247.28;5044904;28;20023;-57
2023/11/24 06:04:51;;;;;;;;;;;;;;;3.24;100.00;99248.13;5035271;28;19979;-54
2023/11/24 06:07:19;;;;;;;;;;;;;;;3.23;100.00;99247.28;5039836;28;19936;-50
2023/11/24 06:09:46;;;;;;;;;;;;;;;3.28;100.00;99260.91;5039296;28;19925;-51
2023/11/24 06:12:13;;;;;;;;;;;;;;;3.35;100.00;99255.41;5039000;28;20698;-53
2023/11/24 06:14:40;;;;;;;;;;;;;;;3.38;100.00;99250.91;5034631;28;20026;-56
2023/11/24 06:17:08;;;;;;;;;;;;;;;3.37;100.00;99238.78;5042940;28;20019;-51
2023/11/24 06:19:35;;;;;;;;;;;;;;;3.38;100.00;99239.63;5038139;28;20413;-52
2023/11/24 06:22:02;;;;;;;;;;;;;;;3.39;100.00;99236.13;5036799;28;20052;-52
2023/11/24 06:24:29;;;;;;;;;;;;;;;3.47;100.00;99239.19;5043977;28;19937;-52
2023/11/24 06:26:56;;;;;;;;;;;;;;;3.49;100.00;99242.53;5042282;28;19960;-53
2023/11/24 06:29:24;;;;;;;;;;;;;;;3.44;100.00;99240.16;5045665;28;19972;-52
2023/11/24 06:31:51;;;;;;;;;;;;;;;3.44;100.00;99239.31;5041975;28;19925;-55
2023/11/24 06:34:19;;;;;;;;;;;;;;;3.51;100.00;99254.53;5040312;28;19939;-54
2023/11/24 06:36:46;;;;;;;;;;;;;;;3.51;100.00;99238.06;5039664;28;20308;-50
2023/11/24 06:39:13;;;;;;;;;;;;;;;3.54;100.00;99236.16;5046791;28;19932;-52
2023/11/24 06:41:41;;;;;;;;;;;;;;;3.55;100.00;99226.56;5037910;28;19964;-52
2023/11/24 06:44:08;;;;;;;;;;;;;;;3.54;100.00;99219.69;5044979;28;19964;-53
2023/11/24 06:46:36;;;;;;;;;;;;;;;3.50;100.00;99232.03;5052809;28;20371;-56
2023/11/24 06:49:05;;;;;;;;;;;;;;;3.54;100.00;99238.75;5051142;28;19977;-53
2023/11/24 06:51:32;;;;;;;;;;;;;;;3.60;100.00;99234.97;5042752;28;20383;-56
2023/11/24 06:54:00;;;;;;;;;;;;;;;3.61;100.00;99246.25;5050419;28;19928;-53
2023/11/24 06:56:29;;;;;;;;;;;;;;;3.58;100.00;99243.81;5048814;28;19935;-56
2023/11/24 06:58:56;;;;;;;;;;;;;;;3.63;100.00;99232.22;5047618;28;19931;-54
2023/11/24 07:01:32;;;;;;;;;;;;;;;3.66;100.00;99229.47;5051494;28;19975;-53
2023/11/24 07:04:02;;;;;;;;;;;;;;;3.69;100.00;99234.53;5050145;28;20403;-51
2023/11/24 07:06:30;;;;;;;;;;;;;;;3.68;100.00;99229.38;5049824;28;20575;-52
2023/11/24 07:08:58;;;;;;;;;;;;;;;3.78;100.00;99222.75;5048372;28;19964;-57
2023/11/24 07:11:25;;;;;;;;;;;;;;;3.75;100.00;99228.97;5046895;28;20019;-55
2023/11/24 07:13:52;;;;;;;;;;;;;;;3.82;100.00;99234.69;5050702;28;19975;-53
2023/11/24 07:16:19;;;;;;;;;;;;;;;3.73;100.00;99223.00;5053657;28;20004;-54
2023/11/24 07:18:47;;;;;;;;;;;;;;;3.79;100.00;99225.28;5053471;28;20023;-52
2023/11/24 07:21:15;;;;;;;;;;;;;;;3.70;100.00;99220.59;5048062;28;20023;-52
2023/11/24 07:23:42;;;;;;;;;;;;;;;3.64;100.00;99233.91;5049979;28;19987;-52
2023/11/24 07:26:09;;;;;;;;;;;;;;;3.61;100.00;99220.25;5043506;28;20031;-52
2023/11/24 07:28:38;;;;;;;;;;;;;;;3.64;100.00;99225.25;5044329;28;19979;-53
2023/11/24 07:31:05;;;;;;;;;;;;;;;3.69;100.00;99218.03;5039897;28;19986;-51
2023/11/24 07:33:32;;;;;;;;;;;;;;;3.69;100.00;99213.72;5038487;28;19976;-55
2023/11/24 07:36:00;;;;;;;;;;;;;;;3.69;100.00;99218.03;5047940;28;19972;-55
2023/11/24 07:38:27;;;;;;;;;;;;;;;3.63;100.00;99219.22;5045816;28;20040;-53
2023/11/24 07:40:54;;;;;;;;;;;;;;;3.65;100.00;99221.72;5045787;28;19984;-51
2023/11/24 07:43:21;;;;;;;;;;;;;;;3.64;100.00;99214.84;5044550;28;19929;-53
2023/11/24 07:45:50;;;;;;;;;;;;;;;3.70;100.00;99219.75;5045601;28;19925;-54
2023/11/24 07:48:19;;;;;;;;;;;;;;;3.70;100.00;99222.34;5049061;28;19973;-52
2023/11/24 07:50:46;;;;;;;;;;;;;;;3.67;100.00;99220.75;5046383;28;20005;-52
2023/11/24 07:53:14;;;;;;;;;;;;;;;3.60;100.00;99228.94;5052215;28;19929;-53
2023/11/24 07:55:41;;;;;;;;;;;;;;;3.64;100.00;99230.47;5046381;28;19991;-52
2023/11/24 07:58:08;;;;;;;;;;;;;;;3.76;100.00;99232.44;5044943;28;19964;-54
2023/11/24 08:00:36;;;;;;;;;;;;;;;3.78;100.00;99221.03;5048291;28;19990;-51
2023/11/24 08:03:04;;;;;;;;;;;;;;;3.72;100.00;99225.69;5046160;28;19976;-55
2023/11/24 08:05:31;;;;;;;;;;;;;;;3.69;100.00;99236.25;5049732;28;19960;-51
2023/11/24 08:07:58;;;;;;;;;;;;;;;3.78;100.00;99228.84;5047981;28;20024;-54
2023/11/24 08:10:26;;;;;;;;;;;;;;;3.83;100.00;99228.59;5049400;28;20031;-54
2023/11/24 08:12:53;;;;;;;;;;;;;;;3.90;100.00;99234.28;5046565;28;19996;-52
2023/11/24 08:15:20;;;;;;;;;;;;;;;3.99;100.00;99239.84;5041163;28;20008;-53
2023/11/24 08:17:47;;;;;;;;;;;;;;;4.12;100.00;99236.56;5038450;28;20387;-54
2023/11/24 08:20:15;;;;;;;;;;;;;;;4.17;100.00;99221.53;5042904;28;19925;-54
2023/11/24 08:22:42;;;;;;;;;;;;;;;4.15;100.00;99239.03;5044078;28;19967;-51
2023/11/24 08:25:09;;;;;;;;;;;;;;;4.18;99.96;99229.25;5048555;28;19971;-55
2023/11/24 08:27:37;;;;;;;;;;;;;;;4.19;99.50;99217.94;5045405;28;20032;-57
2023/11/24 08:30:10;;;;;;;;;;;;;;;4.16;100.00;99219.84;5047721;28;20443;-49
2023/11/24 08:32:38;;;;;;;;;;;;;;;4.15;100.00;99223.41;5048305;28;20491;-52
2023/11/24 08:35:10;;;;;;;;;;;;;;;3.98;100.00;99208.69;5048317;28;19983;-56
2023/11/24 08:37:37;;;;;;;;;;;;;;;3.91;100.00;99197.75;5042916;28;20011;-53
2023/11/24 08:40:05;;;;;;;;;;;;;;;3.89;100.00;99237.81;5044878;28;20027;-55
2023/11/24 08:42:33;;;;;;;;;;;;;;;3.72;100.00;99203.13;5044847;28;20075;-51
2023/11/24 08:45:00;;;;;;;;;;;;;;;3.77;99.91;99215.88;5044678;28;20379;-49
2023/11/24 08:47:27;;;;;;;;;;;;;;;3.76;100.00;99212.44;5045485;28;20468;-51
2023/11/24 08:49:55;;;;;;;;;;;;;;;3.85;100.00;99205.91;5044777;28;20007;-52
2023/11/24 08:52:26;;;;;;;;;;;;;;;3.94;100.00;99215.81;5044653;28;19924;-54
2023/11/24 08:54:53;;;;;;;;;;;;;;;3.88;98.63;99208.34;5041253;28;19978;-49
2023/11/24 08:57:20;;;;;;;;;;;;;;;3.93;100.00;99208.09;5050860;28;20434;-54
2023/11/24 08:59:47;;;;;;;;;;;;;;;3.97;98.16;99207.84;5049751;28;19928;-53
2023/11/24 09:02:14;;;;;;;;;;;;;;;3.87;98.27;99203.19;5042801;28;20023;-53
2023/11/24 09:04:44;;;;;;;;;;;;;;;3.92;98.91;99230.69;5041420;28;21430;-56
2023/11/24 09:07:12;;;;;;;;;;;;;;;3.91;99.47;99210.75;5041907;28;20356;-55
2023/11/24 09:09:41;;;;;;;;;;;;;;;3.85;100.00;99215.47;5036239;28;19972;-57
2023/11/24 09:12:08;;;;;;;;;;;;;;;3.87;100.00;99211.84;5046569;28;19925;-55
2023/11/24 09:14:38;;;;;;;;;;;;;;;3.98;100.00;99206.91;5040552;28;20061;-52
2023/11/24 09:17:06;;;;;;;;;;;;;;;3.99;99.70;99215.56;5037403;28;20021;-53
2023/11/24 09:19:33;;;;;;;;;;;;;;;3.82;100.00;99203.44;5038533;28;20011;-51
2023/11/24 09:22:03;;;;;;;;;;;;;;;3.91;100.00;99210.75;5039544;28;20024;-50
2023/11/24 09:24:30;;;;;;;;;;;;;;;3.85;99.72;99205.06;5044419;28;20031;-55
2023/11/24 09:26:57;;;;;;;;;;;;;;;3.92;99.02;99206.44;5045180;28;20035;-55
2023/11/24 09:29:27;;;;;;;;;;;;;;;3.95;98.25;99186.25;5040334;28;20084;-51
2023/11/24 09:31:57;;;;;;;;;;;;;;;4.14;98.39;99187.84;5044103;28;20019;-53
2023/11/24 09:34:25;;;;;;;;;;;;;;;4.22;97.92;99170.03;5046033;28;19937;-50
2023/11/24 09:36:54;;;;;;;;;;;;;;;4.24;98.17;99186.41;5043703;28;19978;-49
2023/11/24 09:39:25;;;;;;;;;;;;;;;4.20;97.06;99182.31;5039245;28;19965;-50
2023/11/24 09:41:52;;;;;;;;;;;;;;;3.91;97.96;99166.50;5045454;28;19938;-51
2023/11/24 09:44:19;;;;;;;;;;;;;;;3.90;96.85;99187.44;5042044;28;19928;-54
2023/11/24 09:46:47;;;;;;;;;;;;;;;3.91;97.22;99173.47;5042661;28;20418;-56
2023/11/24 09:49:19;;;;;;;;;;;;;;;3.85;98.77;99171.22;5043334;28;20023;-56
2023/11/24 09:51:46;;;;;;;;;;;;;;;3.90;97.75;99164.84;5043280;28;19935;-55
2023/11/24 09:54:13;;;;;;;;;;;;;;;3.96;98.23;99163.66;5045195;28;19929;-50
2023/11/24 09:56:42;;;;;;;;;;;;;;;3.95;97.69;99172.38;5043344;28;19968;-48
2023/11/24 09:59:10;;;;;;;;;;;;;;;3.81;97.44;99149.72;5046053;28;19960;-54
2023/11/24 10:01:37;;;;;;;;;;;;;;;3.99;97.29;99163.50;5037952;28;20015;-51
2023/11/24 10:04:08;;;;;;;;;;;;;;;4.10;96.51;99152.47;5044003;28;20040;-52
2023/11/24 10:06:38;;;;;;;;;;;;;;;4.18;96.12;99151.13;5047300;28;20024;-52
2023/11/24 10:09:06;;;;;;;;;;;;;;;4.25;95.11;99144.66;5044274;28;19924;-55
2023/11/24 10:11:35;;;;;;;;;;;;;;;4.24;94.84;99137.75;5044490;28;19925;-52
2023/11/24 10:14:05;;;;;;;;;;;;;;;4.35;94.34;99123.28;5045794;28;19956;-55
2023/11/24 10:16:33;;;;;;;;;;;;;;;4.39;95.06;99132.59;5047160;28;19932;-52
2023/11/24 10:19:03;;;;;;;;;;;;;;;4.28;94.91;99128.00;5049502;28;21103;-51
2023/11/24 10:21:30;;;;;;;;;;;;;;;4.36;94.57;99119.75;5053156;28;20023;-53
2023/11/24 10:24:00;;;;;;;;;;;;;;;4.34;94.48;99113.78;5047575;28;20033;-53
2023/11/24 10:26:28;;;;;;;;;;;;;;;4.34;94.43;99105.97;5050243;28;19932;-49
2023/11/24 10:28:57;;;;;;;;;;;;;;;4.50;93.53;99098.94;5048990;28;20053;-48
2023/11/24 10:31:24;;;;;;;;;;;;;;;4.50;92.35;99097.19;5043628;28;19941;-53
2023/11/24 10:33:51;;;;;;;;;;;;;;;4.76;90.91;99087.81;5044951;28;20371;-52
2023/11/24 10:36:20;;;;;;;;;;;;;;;4.80;90.04;99091.06;5051407;28;20009;-51
2023/11/24 10:38:47;;;;;;;;;;;;;;;4.88;89.71;99075.81;5044644;28;19925;-49
2023/11/24 10:41:18;;;;;;;;;;;;;;;4.81;89.92;99082.31;5048248;28;20023;-51
2023/11/24 10:43:47;;;;;;;;;;;;;;;4.63;87.90;99083.41;5051426;28;20371;-51
2023/11/24 10:46:16;;;;;;;;;;;;;;;4.55;88.73;99084.72;5057651;28;19933;-55
2023/11/24 10:48:57;;;;;;;;;;;;;;;4.45;89.65;99067.09;5048937;28;20095;-49
2023/11/24 10:51:29;;;;;;;;;;;;;;;4.56;88.89;99068.16;5046681;28;19925;-55
2023/11/24 10:53:57;;;;;;;;;;;;;;;4.62;88.92;99059.13;5048237;28;20438;-52
2023/11/24 10:56:24;;;;;;;;;;;;;;;4.62;89.63;99068.72;5042113;28;20403;-54
2023/11/24 10:58:54;;;;;;;;;;;;;;;4.68;89.60;99065.72;5042059;28;19956;-50
2023/11/24 11:01:24;;;;;;;;;;;;;;;4.61;89.46;99054.84;5047454;28;20008;-51
2023/11/24 11:03:55;;;;;;;;;;;;;;;4.60;88.95;99055.78;5042974;28;19933;-52
2023/11/24 11:06:29;;;;;;;;;;;;;;;4.62;88.58;99068.72;5039303;28;19978;-51
2023/11/24 11:09:09;;;;;;;;;;;;;;;4.34;90.37;99044.28;5048136;28;19975;-53
2023/11/24 11:11:56;;;;;;;;;;;;;;;4.48;90.12;99030.44;5045688;28;20035;-56
2023/11/24 11:14:23;;;;;;;;;;;;;;;4.53;89.27;99044.88;5043207;28;19937;-52
2023/11/24 11:16:51;;;;;;;;;;;;;;;4.49;89.44;99048.59;5040896;28;20086;-53
2023/11/24 11:19:28;;;;;;;;;;;;;;;4.78;86.84;99046.03;5044004;28;20311;-51
2023/11/24 11:21:59;;;;;;;;;;;;;;;4.93;85.94;99039.03;5037756;28;20016;-53
2023/11/24 11:24:29;;;;;;;;;;;;;;;4.76;86.24;99037.44;5051946;28;20473;-52
2023/11/24 11:26:57;;;;;;;;;;;;;;;4.75;87.39;99027.94;5054145;28;20012;-53
2023/11/24 11:29:26;;;;;;;;;;;;;;;4.65;88.09;99024.22;5053890;28;20300;-51
2023/11/24 11:31:53;;;;;;;;;;;;;;;5.14;86.75;99019.47;5055790;28;19928;-52
2023/11/24 11:34:30;;;;;;;;;;;;;;;5.35;85.14;99009.44;5051802;28;20020;-56
2023/11/24 11:37:13;;;;;;;;;;;;;;;5.25;85.78;99014.41;5041619;28;20376;-55
2023/11/24 11:39:53;;;;;;;;;;;;;;;4.86;85.58;99024.69;5050994;28;19925;-48
2023/11/24 11:42:31;;;;;;;;;;;;;;;4.74;85.84;99008.88;5052405;28;19935;-49
2023/11/24 11:45:09;;;;;;;;;;;;;;;4.79;85.45;99019.03;5043011;28;19925;-52
2023/11/24 11:47:50;;;;;;;;;;;;;;;5.28;84.46;99010.78;5046558;28;20020;-50
2023/11/24 11:50:21;;;;;;;;;;;;;;;6.06;78.65;98987.47;5041638;28;20147;-55
2023/11/24 11:52:51;;;;;;;;;;;;;;;6.17;78.10;98989.34;5050413;28;20011;-49
2023/11/24 11:55:19;;;;;;;;;;;;;;;5.86;78.70;98980.94;5054678;28;19964;-48
2023/11/24 11:57:55;;;;;;;;;;;;;;;5.79;79.18;98980.47;5044628;28;19925;-54
2023/11/24 12:00:25;;;;;;;;;;;;;;;6.02;79.49;98960.69;5055585;28;20027;-53
2023/11/24 12:02:52;;;;;;;;;;;;;;;7.46;74.86;98965.53;5047392;28;19968;-51
2023/11/24 12:05:21;;;;;;;;;;;;;;;7.54;68.79;98969.25;5055342;28;19932;-51
2023/11/24 12:07:49;;;;;;;;;;;;;;;6.84;70.77;98963.81;5037495;28;20390;-55
2023/11/24 12:10:16;;;;;;;;;;;;;;;6.26;73.11;98970.44;5049271;28;20002;-52
2023/11/24 12:12:44;;;;;;;;;;;;;;;5.78;74.67;98952.69;5049250;28;19978;-53
2023/11/24 12:15:17;;;;;;;;;;;;;;;5.64;75.78;98958.00;5051340;28;19979;-50
2023/11/24 12:17:44;;;;;;;;;;;;;;;5.19;77.97;98965.22;5046955;28;19971;-51
2023/11/24 12:20:14;;;;;;;;;;;;;;;5.15;78.21;98955.91;5050933;28;19964;-53
2023/11/24 12:22:41;;;;;;;;;;;;;;;4.95;77.99;98945.88;5044638;28;20373;-51
2023/11/24 12:25:10;;;;;;;;;;;;;;;5.03;76.97;98949.69;5046992;28;19933;-51
2023/11/24 12:27:37;;;;;;;;;;;;;;;4.98;77.94;98950.94;5043027;28;20023;-55
2023/11/24 12:30:07;;;;;;;;;;;;;;;4.74;80.09;98946.31;5041810;28;19964;-55
2023/11/24 12:32:34;;;;;;;;;;;;;;;4.90;79.99;98938.34;5051713;28;19955;-53
2023/11/24 12:35:02;;;;;;;;;;;;;;;5.33;79.50;98925.22;5046876;28;19932;-55
2023/11/24 12:37:29;;;;;;;;;;;;;;;5.74;77.10;98916.44;5042272;28;19964;-52
2023/11/24 12:39:56;;;;;;;;;;;;;;;5.83;75.51;98921.88;5050555;28;19963;-55
2023/11/24 12:42:23;;;;;;;;;;;;;;;5.40;77.01;98913.41;5038856;28;19960;-50
2023/11/24 12:44:51;;;;;;;;;;;;;;;5.08;79.02;98910.28;5050933;28;20007;-54
2023/11/24 12:47:19;;;;;;;;;;;;;;;5.09;78.70;98911.97;5054774;28;20000;-54
2023/11/24 12:50:00;;;;;;;;;;;;;;;5.15;79.08;98916.78;5051687;28;19971;-57
2023/11/24 12:52:27;;;;;;;;;;;;;;;5.09;79.68;98896.31;5044981;28;20008;-56
2023/11/24 12:54:55;;;;;;;;;;;;;;;5.15;79.51;98895.94;5049273;28;19924;-54